Time;durP1;ratioP1;P1;durP2;ratioP2;P2;SDS_P1;SDS_P2;PMS_P1;PMS_P2;Temp;Humidity;BMP_temperature;BMP_pressure;BME280_temperature;BME280_humidity;BME280_pressure;Samples;Min_cycle;Max_cycle;Signal;HPM_P1;HPM_P2
2022/12/26 00:01:21;;;;;;;3.83;3.22;;;20.30;41.30;;;;;;5069178;28;20485;-74
2022/12/26 00:03:50;;;;;;;4.93;3.40;;;20.30;41.30;;;;;;5068123;28;20064;-73
2022/12/26 00:06:20;;;;;;;4.53;3.22;;;20.20;41.30;;;;;;5068965;28;20097;-73
2022/12/26 00:08:47;;;;;;;3.85;2.97;;;20.30;41.30;;;;;;5068314;28;20063;-73
2022/12/26 00:11:15;;;;;;;3.08;2.78;;;20.30;41.30;;;;;;5068889;28;20048;-74
2022/12/26 00:13:42;;;;;;;3.78;3.35;;;20.30;41.30;;;;;;5068015;28;20080;-73
2022/12/26 00:16:15;;;;;;;6.55;3.70;;;20.30;41.30;;;;;;5067742;28;20509;-73
2022/12/26 00:18:43;;;;;;;5.22;3.60;;;20.30;41.40;;;;;;5068965;28;20048;-73
2022/12/26 00:21:12;;;;;;;4.20;3.50;;;20.30;41.40;;;;;;5063707;28;20144;-73
2022/12/26 00:23:40;;;;;;;3.70;3.33;;;20.30;41.40;;;;;;5068767;28;20135;-73
2022/12/26 00:26:15;;;;;;;3.35;2.83;;;20.20;41.30;;;;;;5068604;28;20053;-74
2022/12/26 00:28:43;;;;;;;5.57;3.88;;;20.20;41.30;;;;;;5066897;28;20540;-73
2022/12/26 00:31:23;;;;;;;5.38;3.33;;;20.20;41.30;;;;;;5050852;28;20048;-73
2022/12/26 00:33:50;;;;;;;5.20;4.00;;;20.20;41.40;;;;;;5068500;28;20044;-73
2022/12/26 00:36:20;;;;;;;4.90;3.97;;;20.20;41.40;;;;;;5068585;28;20052;-73
2022/12/26 00:38:48;;;;;;;3.72;3.13;;;20.20;41.40;;;;;;5068081;28;20048;-73
2022/12/26 00:41:17;;;;;;;3.85;3.38;;;20.20;41.40;;;;;;5068330;28;20127;-74
2022/12/26 00:43:44;;;;;;;3.42;2.92;;;20.20;41.40;;;;;;5068131;28;20050;-73
2022/12/26 00:46:12;;;;;;;5.85;3.40;;;20.20;41.40;;;;;;5066976;28;20055;-73
2022/12/26 00:48:39;;;;;;;4.70;3.63;;;20.20;41.40;;;;;;5068460;28;20048;-73
2022/12/26 00:51:06;;;;;;;5.50;3.45;;;20.20;41.40;;;;;;5068170;28;20063;-73
2022/12/26 00:53:33;;;;;;;3.30;2.50;;;20.20;41.40;;;;;;5066643;28;20051;-73
2022/12/26 00:56:01;;;;;;;3.85;3.10;;;20.20;41.40;;;;;;5065112;28;20044;-73
2022/12/26 00:58:28;;;;;;;4.72;3.40;;;20.20;41.50;;;;;;5067730;28;20494;-73
2022/12/26 01:01:04;;;;;;;4.20;3.58;;;20.20;41.50;;;;;;5068149;28;20559;-73
2022/12/26 01:03:31;;;;;;;4.18;2.90;;;20.20;41.50;;;;;;5067531;28;20650;-73
2022/12/26 01:06:01;;;;;;;4.38;3.45;;;20.20;41.50;;;;;;5067825;28;20235;-73
2022/12/26 01:08:29;;;;;;;4.75;3.42;;;20.10;41.50;;;;;;5066479;28;20495;-73
2022/12/26 01:10:56;;;;;;;6.25;3.78;;;20.20;41.50;;;;;;5067232;28;20390;-73
2022/12/26 01:13:23;;;;;;;4.95;3.15;;;20.20;41.50;;;;;;5066361;28;20055;-73
2022/12/26 01:15:52;;;;;;;4.78;3.60;;;20.20;41.50;;;;;;5067525;28;20040;-73
2022/12/26 01:18:21;;;;;;;4.65;3.42;;;20.20;41.50;;;;;;5068236;28;20131;-73
2022/12/26 01:20:48;;;;;;;4.82;3.17;;;20.20;41.50;;;;;;5067692;28;20055;-73
2022/12/26 01:23:16;;;;;;;3.45;3.15;;;20.20;41.50;;;;;;5067557;28;20044;-73
2022/12/26 01:25:43;;;;;;;4.65;3.30;;;20.20;41.50;;;;;;5065289;28;20159;-73
2022/12/26 01:28:31;;;;;;;4.05;3.08;;;20.20;41.60;;;;;;5069777;28;20207;-73
2022/12/26 01:31:03;;;;;;;5.55;3.97;;;20.20;41.60;;;;;;5070542;28;20044;-73
2022/12/26 01:33:31;;;;;;;4.63;3.58;;;20.20;41.60;;;;;;5071026;28;20110;-73
2022/12/26 01:35:59;;;;;;;5.43;3.55;;;20.20;41.60;;;;;;5071499;28;20048;-73
2022/12/26 01:38:26;;;;;;;5.45;3.20;;;20.20;41.60;;;;;;5071832;28;20464;-73
2022/12/26 01:41:15;;;;;;;6.70;4.07;;;20.10;41.50;;;;;;5071341;28;20600;-73
2022/12/26 01:43:53;;;;;;;4.68;3.25;;;20.20;41.60;;;;;;5071976;28;20049;-73
2022/12/26 01:46:28;;;;;;;4.22;3.58;;;20.10;41.50;;;;;;5071635;28;20080;-73
2022/12/26 01:49:05;;;;;;;3.70;3.10;;;20.10;41.50;;;;;;5070833;28;20068;-73
2022/12/26 01:51:37;;;;;;;4.35;3.45;;;20.10;41.50;;;;;;5071130;28;20067;-73
2022/12/26 01:54:07;;;;;;;3.92;3.10;;;20.10;41.50;;;;;;5069964;28;20098;-73
2022/12/26 01:56:54;;;;;;;4.38;3.45;;;20.10;41.50;;;;;;5071359;28;20049;-73
2022/12/26 01:59:25;;;;;;;4.05;3.25;;;20.10;42.10;;;;;;5065394;28;20044;-73
2022/12/26 02:01:54;;;;;;;4.00;3.30;;;20.10;41.50;;;;;;5071262;28;20052;-73
2022/12/26 02:07:14;;;;;;;4.15;3.08;;;20.10;41.50;;;;;;5070832;28;20127;-73
2022/12/26 02:09:41;;;;;;;4.88;3.63;;;20.10;41.50;;;;;;5071053;28;20475;-73
2022/12/26 02:12:23;;;;;;;4.93;3.80;;;20.10;41.50;;;;;;5070509;28;20136;-73
2022/12/26 02:15:08;;;;;;;4.20;3.42;;;20.10;41.50;;;;;;5071392;28;20040;-73
2022/12/26 02:17:36;;;;;;;4.85;3.10;;;20.10;41.50;;;;;;5069524;28;20136;-73
2022/12/26 02:20:21;;;;;;;4.35;3.40;;;20.10;41.60;;;;;;5070759;28;20542;-72
2022/12/26 02:23:27;;;;;;;3.17;2.88;;;20.10;41.60;;;;;;5070523;28;20041;-73
2022/12/26 02:26:28;;;;;;;3.92;3.42;;;20.10;41.60;;;;;;5069579;28;20044;-73
2022/12/26 02:29:34;;;;;;;4.07;3.00;;;20.10;41.60;;;;;;5070433;28;20136;-72
2022/12/26 02:32:28;;;;;;;4.35;3.22;;;20.10;41.60;;;;;;5065282;28;20144;-73
2022/12/26 02:35:30;;;;;;;4.18;3.38;;;20.10;41.60;;;;;;5070643;28;20113;-73
2022/12/26 02:38:36;;;;;;;3.92;2.97;;;20.10;41.60;;;;;;5069432;28;20044;-73
2022/12/26 02:41:30;;;;;;;4.78;3.13;;;20.10;41.60;;;;;;5069034;28;20640;-73
2022/12/26 02:47:28;;;;;;;3.58;3.10;;;20.10;41.60;;;;;;5069344;28;20131;-72
2022/12/26 03:14:54;;;;;;;3.03;2.67;;;20.10;41.70;;;;;;5048853;28;20076;-73
2022/12/26 03:17:37;;;;;;;3.70;2.97;;;20.00;41.60;;;;;;5049798;28;20417;-73
2022/12/26 03:20:19;;;;;;;4.68;3.15;;;20.00;41.60;;;;;;5050148;28;20053;-73
2022/12/26 03:22:50;;;;;;;3.47;3.10;;;20.00;41.60;;;;;;5050310;28;20132;-73
2022/12/26 03:28:27;;;;;;;5.10;3.50;;;20.10;41.70;;;;;;5069980;28;20072;-73
2022/12/26 03:30:58;;;;;;;3.67;2.63;;;20.10;41.70;;;;;;5069507;28;20048;-73
2022/12/26 03:36:39;;;;;;;3.83;2.95;;;20.10;41.70;;;;;;5069083;28;20127;-73
2022/12/26 04:19:57;;;;;;;3.13;2.67;;;20.00;41.70;;;;;;5068493;28;20048;-73
2022/12/26 04:46:14;;;;;;;3.05;2.65;;;20.00;41.70;;;;;;5063083;28;20102;-72
2022/12/26 04:51:31;;;;;;;3.73;2.60;;;20.00;41.80;;;;;;5067834;28;20532;-73
2022/12/26 04:53:58;;;;;;;2.90;2.65;;;20.00;41.70;;;;;;5067606;28;20281;-73
2022/12/26 04:56:25;;;;;;;2.60;2.20;;;20.00;41.70;;;;;;5068122;28;20389;-73
2022/12/26 04:58:52;;;;;;;2.47;2.28;;;20.00;41.80;;;;;;5067875;28;20508;-73
2022/12/26 05:09:50;;;;;;;2.67;2.47;;;20.00;41.80;;;;;;5067797;28;20059;-73
2022/12/26 05:12:17;;;;;;;2.67;2.42;;;20.00;41.80;;;;;;5066654;28;20407;-73
2022/12/26 05:14:45;;;;;;;3.17;2.88;;;20.00;41.80;;;;;;5066533;28;20481;-73
2022/12/26 05:28:41;;;;;;;3.00;2.42;;;20.00;41.80;;;;;;5066006;28;20053;-73
2022/12/26 05:31:11;;;;;;;2.60;2.40;;;20.00;41.80;;;;;;5067957;28;20072;-72
2022/12/26 05:36:30;;;;;;;3.47;2.85;;;20.00;41.80;;;;;;5067758;28;20051;-73
2022/12/26 05:38:58;;;;;;;3.03;2.75;;;20.00;41.80;;;;;;5067920;28;20080;-73
2022/12/26 05:41:25;;;;;;;3.78;2.60;;;20.00;41.80;;;;;;5067925;28;20136;-73
2022/12/26 05:43:52;;;;;;;3.35;3.05;;;20.00;41.80;;;;;;5067462;28;20048;-73
2022/12/26 05:46:19;;;;;;;3.20;2.90;;;20.00;41.70;;;;;;5067905;28;20070;-73
2022/12/26 05:48:46;;;;;;;3.67;2.78;;;20.00;41.70;;;;;;5067336;28;20049;-73
2022/12/26 05:51:13;;;;;;;2.97;2.67;;;20.00;41.70;;;;;;5067682;28;20106;-73
2022/12/26 05:53:40;;;;;;;3.03;2.72;;;20.00;41.70;;;;;;5067135;28;20055;-73
2022/12/26 05:56:13;;;;;;;5.25;2.60;;;20.00;41.70;;;;;;5066008;28;20520;-73
2022/12/26 05:58:40;;;;;;;3.33;2.80;;;20.00;41.60;;;;;;5066528;28;20049;-73
2022/12/26 06:01:13;;;;;;;3.33;2.85;;;20.10;41.70;;;;;;5067583;28;20245;-73
2022/12/26 06:03:42;;;;;;;3.35;2.50;;;20.10;41.60;;;;;;5067483;28;20118;-73
2022/12/26 06:06:10;;;;;;;3.53;2.63;;;20.10;41.60;;;;;;5067309;28;20501;-73
2022/12/26 06:08:37;;;;;;;3.70;2.92;;;20.10;41.50;;;;;;5067564;28;20112;-72
2022/12/26 06:11:10;;;;;;;3.78;3.28;;;20.10;41.50;;;;;;5066180;28;20050;-73
2022/12/26 06:13:39;;;;;;;4.15;3.50;;;20.10;41.50;;;;;;5068228;28;20044;-73
2022/12/26 06:16:08;;;;;;;3.88;3.40;;;20.10;41.40;;;;;;5070487;28;20041;-72
2022/12/26 06:18:35;;;;;;;2.92;2.60;;;20.20;41.50;;;;;;5069786;28;20048;-73
2022/12/26 06:21:07;;;;;;;3.35;2.90;;;20.20;41.40;;;;;;5070819;28;20647;-73
2022/12/26 06:23:35;;;;;;;3.88;2.80;;;20.20;41.40;;;;;;5071048;28;20049;-73
2022/12/26 06:26:03;;;;;;;3.03;2.60;;;20.20;41.40;;;;;;5070660;28;20054;-73
2022/12/26 06:28:32;;;;;;;3.10;2.60;;;20.20;41.30;;;;;;5070431;28;20048;-73
2022/12/26 06:31:05;;;;;;;3.20;2.85;;;20.20;41.20;;;;;;5070721;28;20501;-73
2022/12/26 06:33:32;;;;;;;3.33;2.55;;;20.30;41.20;;;;;;5069196;28;20256;-73
2022/12/26 06:36:07;;;;;;;3.03;2.65;;;20.30;41.20;;;;;;5067363;28;20071;-73
2022/12/26 06:38:35;;;;;;;3.50;3.20;;;20.30;41.20;;;;;;5070412;28;20131;-73
2022/12/26 06:41:05;;;;;;;3.97;3.20;;;20.30;41.20;;;;;;5070309;28;20127;-73
2022/12/26 06:43:33;;;;;;;4.22;3.03;;;20.30;41.20;;;;;;5070513;28;20492;-73
2022/12/26 06:46:02;;;;;;;3.38;2.97;;;20.30;41.10;;;;;;5070421;28;20128;-73
2022/12/26 06:48:30;;;;;;;3.58;3.08;;;20.30;41.10;;;;;;5070434;28;20106;-73
2022/12/26 06:51:02;;;;;;;3.97;3.35;;;20.30;41.00;;;;;;5070534;28;20052;-75
2022/12/26 06:53:29;;;;;;;3.35;3.05;;;20.40;41.00;;;;;;5069973;28;20045;-73
2022/12/26 06:56:06;;;;;;;3.58;3.22;;;20.40;41.00;;;;;;5070988;28;20050;-73
2022/12/26 06:58:33;;;;;;;4.00;3.22;;;20.40;41.00;;;;;;5069613;28;20558;-73
2022/12/26 07:01:09;;;;;;;4.75;3.22;;;20.40;40.90;;;;;;5070503;28;20090;-73
2022/12/26 07:03:37;;;;;;;3.70;3.30;;;20.40;40.80;;;;;;5069958;28;20501;-73
2022/12/26 07:06:20;;;;;;;4.00;3.20;;;20.50;40.80;;;;;;5070460;28;20052;-73
2022/12/26 07:08:48;;;;;;;4.22;3.38;;;20.50;40.80;;;;;;5070065;28;20076;-73
2022/12/26 07:11:17;;;;;;;4.43;3.20;;;20.50;40.70;;;;;;5065707;28;20059;-73
2022/12/26 07:13:45;;;;;;;3.50;3.20;;;20.50;40.70;;;;;;5070209;28;20079;-73
2022/12/26 07:16:12;;;;;;;4.20;3.20;;;20.50;40.70;;;;;;5069916;28;20139;-73
2022/12/26 07:18:40;;;;;;;4.25;3.33;;;20.50;40.60;;;;;;5069843;28;20123;-73
2022/12/26 07:21:13;;;;;;;3.67;3.17;;;20.60;40.60;;;;;;5070007;28;20044;-73
2022/12/26 07:23:40;;;;;;;3.97;3.38;;;20.60;40.60;;;;;;5069647;28;20048;-73
2022/12/26 07:26:08;;;;;;;4.47;3.50;;;20.60;40.60;;;;;;5070160;28;20049;-73
2022/12/26 07:28:37;;;;;;;4.00;3.60;;;20.60;40.60;;;;;;5069519;28;20045;-73
2022/12/26 07:31:04;;;;;;;4.57;3.92;;;20.70;40.60;;;;;;5069975;28;20135;-74
2022/12/26 07:33:31;;;;;;;3.70;3.30;;;20.70;40.60;;;;;;5069443;28;20525;-73
2022/12/26 07:36:04;;;;;;;4.47;3.90;;;20.70;40.50;;;;;;5069600;28;20060;-73
2022/12/26 07:38:32;;;;;;;4.20;3.50;;;20.70;40.50;;;;;;5069713;28;20052;-73
2022/12/26 07:41:56;;;;;;;4.55;3.10;;;20.70;40.40;;;;;;5069214;28;20132;-73
2022/12/26 07:43:46;;;;;;;4.63;3.80;;;20.70;40.40;;;;;;5068288;28;20094;-73
2022/12/26 07:46:14;;;;;;;4.25;3.53;;;20.80;40.50;;;;;;5067820;28;20075;-73
2022/12/26 07:48:41;;;;;;;3.78;3.38;;;20.80;40.40;;;;;;5066105;28;20044;-73
2022/12/26 07:51:08;;;;;;;5.15;3.65;;;20.80;40.40;;;;;;5068199;28;20136;-74
2022/12/26 07:53:35;;;;;;;3.67;3.38;;;20.90;40.40;;;;;;5068778;28;20075;-74
2022/12/26 07:56:02;;;;;;;4.18;3.45;;;20.90;40.40;;;;;;5069307;28;20059;-73
2022/12/26 07:58:30;;;;;;;4.55;3.75;;;20.90;40.30;;;;;;5069281;28;20076;-74
2022/12/26 08:01:01;;;;;;;4.28;3.58;;;21.00;40.30;;;;;;5068611;28;20057;-73
2022/12/26 08:03:28;;;;;;;3.95;3.47;;;21.00;40.30;;;;;;5069338;28;20451;-74
2022/12/26 08:05:55;;;;;;;5.10;4.13;;;21.00;40.20;;;;;;5068775;28;20048;-73
2022/12/26 08:08:23;;;;;;;4.03;3.50;;;21.00;40.10;;;;;;5069187;28;20103;-73
2022/12/26 08:11:05;;;;;;;4.55;3.65;;;21.10;40.20;;;;;;5067452;28;20127;-73
2022/12/26 08:13:33;;;;;;;4.78;4.30;;;21.20;40.20;;;;;;5068639;28;20119;-74
2022/12/26 08:16:05;;;;;;;4.32;3.78;;;21.20;40.20;;;;;;5068663;28;20040;-73
2022/12/26 08:18:33;;;;;;;3.75;3.42;;;21.20;40.10;;;;;;5068728;28;20048;-73
2022/12/26 08:21:01;;;;;;;4.72;4.25;;;21.20;40.10;;;;;;5066879;28;20049;-73
2022/12/26 08:23:28;;;;;;;5.28;4.05;;;21.30;40.10;;;;;;5064196;28;20041;-74
2022/12/26 08:25:55;;;;;;;3.97;3.58;;;21.30;40.00;;;;;;5068805;28;20055;-73
2022/12/26 08:28:22;;;;;;;4.00;3.67;;;21.30;40.00;;;;;;5068490;28;20054;-74
2022/12/26 08:30:50;;;;;;;3.25;2.92;;;21.40;40.00;;;;;;5068409;28;20472;-73
2022/12/26 08:33:17;;;;;;;5.07;3.88;;;21.40;40.00;;;;;;5068908;28;20044;-74
2022/12/26 08:35:44;;;;;;;4.32;3.47;;;21.40;39.90;;;;;;5067321;28;20056;-73
2022/12/26 08:38:11;;;;;;;4.28;3.80;;;21.50;39.90;;;;;;5066517;28;20515;-73
2022/12/26 08:40:38;;;;;;;4.53;3.53;;;21.50;39.90;;;;;;5068094;28;20439;-74
2022/12/26 08:43:10;;;;;;;4.70;3.17;;;21.60;39.90;;;;;;5068220;28;20561;-74
2022/12/26 08:46:02;;;;;;;4.68;3.83;;;21.60;39.90;;;;;;5067838;28;20071;-74
2022/12/26 08:48:30;;;;;;;5.15;4.05;;;21.60;39.80;;;;;;5066217;28;20048;-74
2022/12/26 08:51:01;;;;;;;4.00;3.40;;;21.70;39.80;;;;;;5068580;28;20139;-74
2022/12/26 08:53:31;;;;;;;3.97;3.55;;;21.70;39.80;;;;;;5067723;28;20143;-74
2022/12/26 08:55:58;;;;;;;4.40;3.55;;;21.70;39.80;;;;;;5063604;28;20131;-73
2022/12/26 08:58:26;;;;;;;4.22;3.55;;;21.80;39.80;;;;;;5067906;28;20049;-74
2022/12/26 09:01:06;;;;;;;4.70;3.40;;;21.80;39.70;;;;;;5067895;28;20109;-74
2022/12/26 09:03:34;;;;;;;5.15;4.13;;;21.80;39.70;;;;;;5068171;28;20056;-73
2022/12/26 09:06:01;;;;;;;4.28;3.65;;;21.90;39.70;;;;;;5067746;28;20469;-74
2022/12/26 09:08:33;;;;;;;3.40;3.10;;;21.90;39.60;;;;;;5067507;28;20327;-74
2022/12/26 09:11:03;;;;;;;3.88;3.38;;;21.90;39.60;;;;;;5068049;28;20067;-73
2022/12/26 09:13:32;;;;;;;3.72;3.33;;;22.00;39.60;;;;;;5067557;28;20052;-74
2022/12/26 09:16:09;;;;;;;4.35;3.35;;;22.00;39.60;;;;;;5068319;28;20131;-73
2022/12/26 09:18:36;;;;;;;4.22;3.35;;;22.00;39.60;;;;;;5067262;28;20472;-74
2022/12/26 09:21:06;;;;;;;4.68;3.33;;;22.10;39.60;;;;;;5068282;28;20072;-73
2022/12/26 09:23:36;;;;;;;4.30;3.30;;;22.10;39.50;;;;;;5067523;28;20139;-73
2022/12/26 09:26:06;;;;;;;3.63;3.33;;;22.10;39.50;;;;;;5068046;28;20044;-74
2022/12/26 09:28:33;;;;;;;4.05;3.38;;;22.20;39.50;;;;;;5061827;28;20507;-74
2022/12/26 09:31:02;;;;;;;3.05;2.75;;;22.20;39.50;;;;;;5067592;28;20040;-73
2022/12/26 09:33:32;;;;;;;3.33;2.80;;;22.20;39.50;;;;;;5067892;28;20048;-74
2022/12/26 09:35:59;;;;;;;5.03;3.83;;;22.20;39.50;;;;;;5067470;28;20497;-73
2022/12/26 09:38:33;;;;;;;4.13;3.47;;;22.30;39.50;;;;;;5066643;28;20129;-74
2022/12/26 09:41:40;;;;;;;4.93;3.20;;;22.30;39.40;;;;;;5067925;28;20105;-73
2022/12/26 09:44:39;;;;;;;3.95;2.90;;;22.40;39.40;;;;;;5066620;28;20045;-73
2022/12/26 09:47:27;;;;;;;3.70;3.33;;;22.30;39.40;;;;;;5067739;28;20052;-73
2022/12/26 09:50:04;;;;;;;3.20;2.88;;;22.40;39.40;;;;;;5070434;28;20063;-73
2022/12/26 09:52:48;;;;;;;3.85;3.25;;;22.50;39.40;;;;;;5071145;28;20043;-74
2022/12/26 09:55:35;;;;;;;3.92;3.38;;;22.50;39.40;;;;;;5069931;28;20049;-73
2022/12/26 09:58:16;;;;;;;3.28;2.92;;;22.50;39.40;;;;;;5071245;28;20072;-73
2022/12/26 10:00:50;;;;;;;3.90;3.15;;;22.50;39.30;;;;;;5067855;28;20147;-73
2022/12/26 10:03:18;;;;;;;3.17;2.50;;;22.50;39.40;;;;;;5054521;28;20458;-73
2022/12/26 10:06:00;;;;;;;5.13;3.50;;;22.50;39.30;;;;;;5071057;28;20140;-74
2022/12/26 10:08:57;;;;;;;3.67;3.10;;;22.60;39.40;;;;;;5071192;28;20040;-73
2022/12/26 10:11:57;;;;;;;3.33;2.92;;;22.60;39.30;;;;;;5070989;28;20451;-73
2022/12/26 10:14:54;;;;;;;3.65;3.30;;;22.60;39.30;;;;;;5070781;28;20131;-73
2022/12/26 10:18:01;;;;;;;4.43;3.30;;;22.60;39.30;;;;;;5070927;28;20083;-73
2022/12/26 10:21:08;;;;;;;3.75;2.92;;;22.70;39.30;;;;;;5070671;28;20044;-73
2022/12/26 10:23:42;;;;;;;4.53;3.13;;;22.70;39.30;;;;;;5070728;28;20481;-73
2022/12/26 10:26:21;;;;;;;3.08;2.50;;;22.70;39.30;;;;;;5070440;28;20074;-73
2022/12/26 10:29:01;;;;;;;2.92;2.65;;;22.70;39.20;;;;;;5070783;28;20564;-73
2022/12/26 10:31:51;;;;;;;3.15;2.85;;;22.80;39.30;;;;;;5070655;28;20052;-73
2022/12/26 10:34:46;;;;;;;2.85;2.60;;;22.80;39.20;;;;;;5066248;28;20769;-73
2022/12/26 10:37:33;;;;;;;3.53;2.67;;;22.80;39.20;;;;;;5070895;28;20404;-73
2022/12/26 10:40:23;;;;;;;3.20;2.42;;;22.80;39.20;;;;;;5070835;28;20086;-73
2022/12/26 10:42:58;;;;;;;2.97;2.60;;;22.80;39.20;;;;;;5055726;28;20048;-73
2022/12/26 10:45:47;;;;;;;2.70;2.50;;;22.80;39.10;;;;;;5069947;28;20332;-73
2022/12/26 10:48:16;;;;;;;3.38;2.60;;;22.90;39.10;;;;;;5070094;28;20136;-73
2022/12/26 10:50:47;;;;;;;2.80;2.60;;;22.90;39.20;;;;;;5070358;28;20122;-73
2022/12/26 10:53:16;;;;;;;2.78;2.10;;;22.90;39.20;;;;;;5070394;28;20050;-73
2022/12/26 10:55:43;;;;;;;3.22;2.65;;;22.90;39.10;;;;;;5070536;28;20136;-74
2022/12/26 10:58:29;;;;;;;2.90;2.70;;;22.90;39.20;;;;;;5070188;28;20083;-73
2022/12/26 11:01:19;;;;;;;3.97;2.72;;;22.90;39.20;;;;;;5069721;28;20261;-73
2022/12/26 11:03:54;;;;;;;2.55;2.35;;;22.90;39.20;;;;;;5070057;28;20068;-73
2022/12/26 11:06:25;;;;;;;2.60;2.25;;;22.90;39.20;;;;;;5065174;28;20044;-73
2022/12/26 11:08:53;;;;;;;3.08;2.35;;;22.90;39.20;;;;;;5069882;28;20280;-74
2022/12/26 11:11:24;;;;;;;2.60;2.40;;;22.90;39.20;;;;;;5069153;28;20051;-74
2022/12/26 11:13:56;;;;;;;2.67;2.40;;;23.00;39.20;;;;;;5069493;28;20135;-73
2022/12/26 11:16:35;;;;;;;2.40;2.25;;;23.00;39.30;;;;;;5070244;28;20051;-73
2022/12/26 11:19:03;;;;;;;2.70;2.10;;;23.00;39.20;;;;;;5069869;28;20131;-73
2022/12/26 11:21:31;;;;;;;3.00;2.50;;;23.00;39.30;;;;;;5070151;28;20124;-73
2022/12/26 11:24:18;;;;;;;3.35;2.67;;;23.00;39.30;;;;;;5069776;28;20107;-73
2022/12/26 11:26:46;;;;;;;2.42;2.20;;;23.00;39.20;;;;;;5069647;28;20045;-73
2022/12/26 11:29:19;;;;;;;2.70;1.90;;;23.00;39.80;;;;;;5069263;28;20139;-73
2022/12/26 11:31:56;;;;;;;2.05;1.83;;;23.00;39.30;;;;;;5069739;28;20075;-73
2022/12/26 11:34:34;;;;;;;2.60;2.35;;;23.00;39.20;;;;;;5070119;28;20128;-73
2022/12/26 11:37:03;;;;;;;3.20;2.45;;;23.00;39.20;;;;;;5064980;28;20075;-73
2022/12/26 11:39:34;;;;;;;2.20;2.00;;;23.10;39.30;;;;;;5069555;28;20127;-73
2022/12/26 11:42:10;;;;;;;2.50;2.30;;;23.10;39.30;;;;;;5069853;28;20053;-74
2022/12/26 11:44:43;;;;;;;2.10;2.00;;;23.10;39.30;;;;;;5069023;28;20135;-73
2022/12/26 11:47:16;;;;;;;2.50;2.30;;;23.10;39.20;;;;;;5069697;28;20481;-74
2022/12/26 11:50:09;;;;;;;2.00;1.80;;;23.10;39.20;;;;;;5068794;28;20283;-73
2022/12/26 11:53:02;;;;;;;3.00;2.47;;;23.10;39.20;;;;;;5068014;28;20051;-73
2022/12/26 11:55:36;;;;;;;2.47;2.05;;;23.10;39.30;;;;;;5068687;28;20049;-73
2022/12/26 11:58:24;;;;;;;2.40;2.20;;;23.10;39.20;;;;;;5069433;28;20040;-73
2022/12/26 12:01:10;;;;;;;4.40;2.20;;;23.10;39.20;;;;;;5067637;28;20176;-74
2022/12/26 12:03:48;;;;;;;3.15;2.47;;;23.10;39.20;;;;;;5067672;28;20041;-73
2022/12/26 12:06:49;;;;;;;2.60;2.17;;;23.10;39.20;;;;;;5068948;28;20136;-73
2022/12/26 12:09:39;;;;;;;2.30;2.10;;;23.10;39.30;;;;;;5064246;28;20084;-73
2022/12/26 12:12:24;;;;;;;2.08;1.98;;;23.10;39.30;;;;;;5068488;28;20044;-73
2022/12/26 12:15:21;;;;;;;2.40;2.15;;;23.10;39.30;;;;;;5068984;28;20048;-73
2022/12/26 12:18:15;;;;;;;2.22;2.03;;;23.10;39.30;;;;;;5068483;28;20124;-73
2022/12/26 12:21:13;;;;;;;1.88;1.70;;;23.10;39.20;;;;;;5068559;28;20083;-73
2022/12/26 12:24:06;;;;;;;2.40;2.00;;;23.10;39.30;;;;;;5067704;28;20067;-73
2022/12/26 12:26:59;;;;;;;2.13;1.92;;;23.10;39.20;;;;;;5068179;28;20051;-73
2022/12/26 12:30:07;;;;;;;1.90;1.70;;;23.10;39.20;;;;;;5067546;28;20135;-73
2022/12/26 12:33:14;;;;;;;2.13;1.92;;;23.10;39.20;;;;;;5055570;28;20067;-73
2022/12/26 12:36:05;;;;;;;1.55;1.45;;;23.10;39.20;;;;;;5067576;28;20458;-73
2022/12/26 12:39:09;;;;;;;1.75;1.65;;;23.10;39.20;;;;;;5067943;28;20143;-73
2022/12/26 12:42:02;;;;;;;2.13;1.92;;;23.20;39.20;;;;;;5066437;28;20140;-73
2022/12/26 12:45:09;;;;;;;2.50;1.98;;;23.20;39.20;;;;;;5068113;28;20055;-73
2022/12/26 12:48:15;;;;;;;2.05;1.90;;;23.20;39.20;;;;;;5067959;28;20048;-74
2022/12/26 12:51:05;;;;;;;2.30;2.10;;;23.20;39.20;;;;;;5066713;28;20088;-73
2022/12/26 12:54:07;;;;;;;1.85;1.75;;;23.10;39.10;;;;;;5068079;28;20053;-73
2022/12/26 12:57:05;;;;;;;2.28;2.08;;;23.10;39.10;;;;;;5067867;28;20418;-73
2022/12/26 13:00:11;;;;;;;1.75;1.65;;;23.20;39.20;;;;;;5068009;28;20134;-73
2022/12/26 13:03:16;;;;;;;2.30;1.85;;;23.10;39.10;;;;;;5067538;28;20159;-73
2022/12/26 13:06:07;;;;;;;1.90;1.70;;;23.10;39.10;;;;;;5068201;28;20075;-73
2022/12/26 13:08:47;;;;;;;;;;;23.10;39.10;;;;;;5067213;28;20059;-73
2022/12/26 13:11:31;;;;;;;2.17;1.98;;;23.10;39.10;;;;;;5068165;28;20504;-73
2022/12/26 13:14:20;;;;;;;1.80;1.70;;;23.10;39.10;;;;;;5064759;28;20051;-73
2022/12/26 13:17:10;;;;;;;1.83;1.73;;;23.10;39.20;;;;;;5067957;28;20127;-73
2022/12/26 13:19:46;;;;;;;1.80;1.70;;;23.10;39.20;;;;;;5067579;28;20048;-73
2022/12/26 13:24:22;;;;;;;;;;;23.10;39.20;;;;;;5068164;28;20371;-73
2022/12/26 13:25:18;;;;;;;2.00;1.80;;;23.10;39.20;;;;;;5067319;28;19964;-74
2022/12/26 13:27:47;;;;;;;1.80;1.70;;;23.10;39.20;;;;;;5067820;28;20044;-73
2022/12/26 13:30:16;;;;;;;2.17;1.83;;;23.10;39.30;;;;;;5067347;28;20052;-74
2022/12/26 13:32:44;;;;;;;1.92;1.70;;;23.10;39.30;;;;;;5068243;28;20044;-73
2022/12/26 13:35:52;;;;;;;1.70;1.60;;;23.10;39.30;;;;;;5067222;28;20105;-73
2022/12/26 13:38:21;;;;;;;2.33;2.05;;;23.10;39.30;;;;;;5067569;28;20047;-73
2022/12/26 13:44:05;;;;;;;1.75;1.63;;;23.10;39.30;;;;;;5067864;28;20054;-73
2022/12/26 13:46:54;;;;;;;1.80;1.70;;;23.10;39.40;;;;;;5068188;28;20057;-73
2022/12/26 13:49:37;;;;;;;1.85;1.70;;;23.10;39.30;;;;;;5061617;28;20040;-73
2022/12/26 13:52:34;;;;;;;2.70;1.90;;;23.10;39.40;;;;;;5067835;28;20063;-75
2022/12/26 13:55:29;;;;;;;1.75;1.65;;;23.10;39.40;;;;;;5065966;28;20057;-73
2022/12/26 13:58:36;;;;;;;2.22;2.03;;;23.00;39.30;;;;;;5053836;28;20499;-73
2022/12/26 14:01:41;;;;;;;2.42;2.22;;;23.00;39.40;;;;;;5067151;28;20048;-73
2022/12/26 14:04:40;;;;;;;2.00;1.80;;;23.00;39.50;;;;;;5067710;28;20048;-73
2022/12/26 14:07:29;;;;;;;1.80;1.70;;;23.00;39.50;;;;;;5066393;28;20451;-74
2022/12/26 14:10:20;;;;;;;2.13;1.88;;;23.00;39.40;;;;;;5067204;28;20287;-73
2022/12/26 14:13:02;;;;;;;2.53;1.92;;;23.00;39.50;;;;;;5067598;28;20044;-73
2022/12/26 14:15:58;;;;;;;1.90;1.80;;;23.00;39.50;;;;;;5067060;28;20048;-73
2022/12/26 14:18:48;;;;;;;2.08;1.88;;;23.00;39.60;;;;;;5067246;28;20110;-73
2022/12/26 14:21:35;;;;;;;1.97;1.77;;;23.00;39.60;;;;;;5067557;28;20052;-73
2022/12/26 14:24:24;;;;;;;1.98;1.80;;;22.90;39.60;;;;;;5061687;28;20397;-73
2022/12/26 14:27:27;;;;;;;1.80;1.50;;;22.90;39.70;;;;;;5067101;28;20123;-73
2022/12/26 14:30:18;;;;;;;2.22;2.03;;;22.90;39.70;;;;;;5066313;28;20622;-73
2022/12/26 14:33:21;;;;;;;2.05;1.80;;;22.90;39.70;;;;;;5067217;28;20048;-73
2022/12/26 14:36:20;;;;;;;2.10;1.90;;;22.90;39.80;;;;;;5068169;28;20048;-73
2022/12/26 14:39:27;;;;;;;2.10;1.90;;;22.80;39.80;;;;;;5069520;28;20048;-73
2022/12/26 14:45:10;;;;;;;2.75;1.58;;;22.80;39.90;;;;;;5070414;28;20084;-73
2022/12/26 14:47:46;;;;;;;3.05;2.35;;;22.80;39.90;;;;;;5070285;28;20148;-73
2022/12/26 14:50:35;;;;;;;1.95;1.75;;;22.70;39.90;;;;;;5070388;28;20483;-74
2022/12/26 14:53:29;;;;;;;2.05;1.90;;;22.70;40.00;;;;;;5070111;28;20162;-73
2022/12/26 14:56:36;;;;;;;2.22;2.03;;;22.70;40.00;;;;;;5070431;28;20507;-73
2022/12/26 14:59:26;;;;;;;2.33;2.13;;;22.70;40.00;;;;;;5064413;28;20106;-73
2022/12/26 15:02:21;;;;;;;2.15;1.90;;;22.70;40.10;;;;;;5070410;28;20323;-74
2022/12/26 15:05:01;;;;;;;2.20;2.00;;;22.60;40.10;;;;;;5070064;28;20044;-73
2022/12/26 15:07:43;;;;;;;;;;;22.60;40.10;;;;;;5070756;28;20052;-74
2022/12/26 15:10:48;;;;;;;2.28;2.10;;;22.60;40.10;;;;;;5070121;28;19920;-73
2022/12/26 15:13:51;;;;;;;2.22;2.03;;;22.60;40.20;;;;;;5069521;28;20477;-73
2022/12/26 15:16:33;;;;;;;3.78;2.40;;;22.60;40.20;;;;;;5070216;28;20055;-75
2022/12/26 15:19:29;;;;;;;1.77;1.50;;;22.50;40.30;;;;;;5069733;28;20047;-73
2022/12/26 15:22:28;;;;;;;1.80;1.70;;;22.50;40.40;;;;;;5069719;28;20063;-73
2022/12/26 15:25:28;;;;;;;2.10;1.90;;;22.40;40.40;;;;;;5069582;28;20135;-73
2022/12/26 15:28:14;;;;;;;1.50;1.40;;;22.40;40.60;;;;;;5068714;28;20530;-73
2022/12/26 15:31:09;;;;;;;2.70;1.75;;;22.30;40.60;;;;;;5066829;28;20087;-73
2022/12/26 15:33:52;;;;;;;2.97;2.05;;;22.20;40.70;;;;;;5068882;28;20390;-74
2022/12/26 15:36:51;;;;;;;1.60;1.50;;;22.20;40.80;;;;;;5069187;28;20493;-73
2022/12/26 15:39:36;;;;;;;3.33;1.50;;;22.20;41.00;;;;;;5069349;28;20044;-73
2022/12/26 15:42:41;;;;;;;2.17;1.95;;;22.10;41.00;;;;;;5068126;28;20128;-73
2022/12/26 15:45:42;;;;;;;1.85;1.75;;;22.00;41.10;;;;;;5067564;28;20044;-73
2022/12/26 15:48:39;;;;;;;2.92;1.83;;;22.00;41.20;;;;;;5068573;28;20084;-73
2022/12/26 15:51:28;;;;;;;1.70;1.60;;;22.00;41.30;;;;;;5067810;28;20048;-73
2022/12/26 15:54:33;;;;;;;2.25;1.83;;;21.90;41.30;;;;;;5069200;28;20545;-73
2022/12/26 15:57:27;;;;;;;2.10;1.90;;;21.90;41.40;;;;;;5069165;28;20576;-73
2022/12/26 16:00:22;;;;;;;1.60;1.50;;;21.90;41.50;;;;;;5069083;28;20200;-73